You are not logged in, Click here to log in
堪察加彼得巴甫洛夫斯克機場PKC / UHPP 俄羅斯聯邦堪察加邊疆區堪察加彼得巴甫洛夫斯克
ICAO: UHPP Country: 俄羅斯聯邦堪察加邊疆區堪察加彼得巴甫洛夫斯克
Latitude: 53.1679 Longitude: 158.454
Total Arrivals: 4 Total Departures: 4
Latest Arrival: HZ153G (PANC-UHPP)Jason. Li Latest Departure: 6RU631 (UHPP-UHMM)Jason. Li
Scenery:
METAR : UHPP 211300Z 02004MPS 9999 NSC M17/M20 Q1004 R34L/CLRD70 NOSIG RMK QFE749/0999

堪察加彼得巴甫洛夫斯克機場PKC

You are accessing this site from IP address 18.206.12.79. Virtual Airline. CMS by phpVMS.Website designed by Zumeweb and edited by Theo Bearman.
There is 1 User(s) Online: | Lun Wang | and 12 Guest(s) Online.
All information on this site is for fight simulation purposes only. This site is for flight logging for pilots of Virtual Airline&模擬飛行論壇 FlySim only.